KMVL/MVL METAR and TAF weather

Enter ICAO airport designator
Station Type Date Time Source
KMVL METAR 2021/01/16 01:54 UTC NOAA

KMVL 160154Z AUTO 18008KT 10SM CLR 02/M05 A3001 RMK AO2 SLP172 T00171050


Station Type Date Time Source
KMVL Decoded METAR 2021/01/16 01:54 UTC NOAA

MORRISVILLE STOWE STATE AIRPORT , VT, United States (KMVL) 44-32N 72-37W 223M
Jan 15, 2021 - 08:54 PM EST / 2021.01.16 0154 UTC
Wind: from the S (180 degrees) at 9 MPH (8 KT):0
Visibility: 10 mile(s):0
Sky conditions: clear
Temperature: 35.1 F (1.7 C)
Dew Point: 23.0 F (-5.0 C)
Relative Humidity: 61%
Pressure (altimeter): 30.01 in. Hg (1016 hPa)
ob: KMVL 160154Z AUTO 18008KT 10SM CLR 02/M05 A3001 RMK AO2 SLP172 T00171050
cycle: 2

Station Type Date Time Source
KMVL TAF UTC NOAA

Error!

Example: see airport list